Time,TemperatureF,DewpointF,PressureIn,WindDirection,WindDirectionDegrees,WindSpeedMPH,WindSpeedGustMPH,Humidity,HourlyPrecipIn,Conditions,Clouds,dailyrainin,SoftwareType,DateUTC
2013-03-22 00:00:00,41.9,21.0,29.92,North,360,0.0,0.0,43,0.00,,---,0.00,VWS V14.01,2013-03-22 04:00:00,
2013-03-22 00:05:00,41.8,20.4,29.93,North,355,0.0,0.0,42,0.00,,---,0.00,VWS V14.01,2013-03-22 04:05:00,
2013-03-22 00:10:00,41.9,20.5,29.93,NE,34,0.0,0.0,42,0.00,,---,0.00,VWS V14.01,2013-03-22 04:10:00,
2013-03-22 00:15:00,41.9,20.5,29.94,NNE,13,0.0,0.0,42,0.00,,---,0.00,VWS V14.01,2013-03-22 04:15:00,
2013-03-22 00:20:00,41.7,20.3,29.94,NNE,12,0.0,0.0,42,0.00,,---,0.00,VWS V14.01,2013-03-22 04:20:00,
2013-03-22 00:25:00,41.5,20.7,29.94,NNE,12,0.0,0.0,43,0.00,,---,0.00,VWS V14.01,2013-03-22 04:25:00,
2013-03-22 00:30:00,41.3,20.0,29.94,North,11,0.0,0.0,42,0.00,,---,0.00,VWS V14.01,2013-03-22 04:30:00,
2013-03-22 00:35:00,41.3,20.0,29.94,NNE,28,0.0,0.0,42,0.00,,---,0.00,VWS V14.01,2013-03-22 04:35:00,
2013-03-22 00:40:00,41.3,19.4,29.95,NNE,28,0.0,0.0,41,0.00,,---,0.00,VWS V14.01,2013-03-22 04:40:00,
2013-03-22 00:45:00,41.2,19.9,29.95,North,11,0.0,0.0,42,0.00,,---,0.00,VWS V14.01,2013-03-22 04:45:00,
2013-03-22 00:50:00,41.0,19.7,29.95,NNE,31,0.0,0.0,42,0.00,,---,0.00,VWS V14.01,2013-03-22 04:50:00,
2013-03-22 00:55:00,40.9,19.6,29.95,NNE,27,0.0,0.0,42,0.00,,---,0.00,VWS V14.01,2013-03-22 04:55:00,
2013-03-22 01:00:00,40.7,20.0,29.95,NNE,26,0.0,0.0,43,0.00,,---,0.00,VWS V14.01,2013-03-22 05:00:00,
2013-03-22 01:05:00,40.5,19.2,29.95,NNE,21,0.0,0.0,42,0.00,,---,0.00,VWS V14.01,2013-03-22 05:05:00,
2013-03-22 01:10:00,40.3,19.6,29.96,NNE,17,0.0,0.0,43,0.00,,---,0.00,VWS V14.01,2013-03-22 05:10:00,
2013-03-22 01:15:00,40.3,19.0,29.96,NNE,19,0.0,0.0,42,0.00,,---,0.00,VWS V14.01,2013-03-22 05:15:00,
2013-03-22 01:20:00,40.1,19.4,29.96,NNE,16,0.0,0.0,43,0.00,,---,0.00,VWS V14.01,2013-03-22 05:20:00,
2013-03-22 01:25:00,40.0,18.8,29.96,NNE,15,0.0,0.0,42,0.00,,---,0.00,VWS V14.01,2013-03-22 05:25:00,
2013-03-22 01:30:00,39.9,18.7,29.96,NE,42,0.0,0.0,42,0.00,,---,0.00,VWS V14.01,2013-03-22 05:30:00,
2013-03-22 01:35:00,39.8,18.6,29.96,NNE,33,0.0,0.0,42,0.00,,---,0.00,VWS V14.01,2013-03-22 05:35:00,
2013-03-22 01:40:00,39.7,18.5,29.96,NNE,33,0.0,0.0,42,0.00,,---,0.00,VWS V14.01,2013-03-22 05:40:00,
2013-03-22 01:45:00,39.6,17.9,29.96,NNE,13,0.0,0.0,41,0.00,,---,0.00,VWS V14.01,2013-03-22 05:45:00,
2013-03-22 01:50:00,39.5,18.3,29.96,NNE,28,0.0,0.0,42,0.00,,---,0.00,VWS V14.01,2013-03-22 05:50:00,
2013-03-22 01:55:00,39.3,18.1,29.97,NE,42,0.0,0.0,42,0.00,,---,0.00,VWS V14.01,2013-03-22 05:55:00,
2013-03-22 02:00:00,39.2,18.0,29.97,NNE,15,0.0,0.0,42,0.00,,---,0.00,VWS V14.01,2013-03-22 06:00:00,
2013-03-22 02:05:00,39.1,18.0,29.97,NE,54,0.0,0.0,42,0.00,,---,0.00,VWS V14.01,2013-03-22 06:05:00,
2013-03-22 02:10:00,39.0,17.9,29.97,NNE,25,0.0,0.0,42,0.00,,---,0.00,VWS V14.01,2013-03-22 06:10:00,
2013-03-22 02:15:00,38.9,18.3,29.97,NE,34,0.0,0.0,43,0.00,,---,0.00,VWS V14.01,2013-03-22 06:15:00,
2013-03-22 02:20:00,38.8,17.7,29.97,NNE,25,0.0,0.0,42,0.00,,---,0.00,VWS V14.01,2013-03-22 06:20:00,
2013-03-22 02:25:00,38.7,18.1,29.97,NE,52,0.0,0.0,43,0.00,,---,0.00,VWS V14.01,2013-03-22 06:25:00,
2013-03-22 02:30:00,38.5,18.0,29.98,NNE,15,0.0,0.0,43,0.00,,---,0.00,VWS V14.01,2013-03-22 06:30:00,
2013-03-22 02:35:00,38.4,18.4,29.97,NNE,26,0.0,0.0,44,0.00,,---,0.00,VWS V14.01,2013-03-22 06:35:00,
2013-03-22 02:40:00,38.3,17.8,29.97,NE,39,0.0,0.0,43,0.00,,---,0.00,VWS V14.01,2013-03-22 06:40:00,
2013-03-22 02:45:00,38.2,18.2,29.97,NE,43,0.0,0.0,44,0.00,,---,0.00,VWS V14.01,2013-03-22 06:45:00,
2013-03-22 02:50:00,38.1,18.1,29.98,NE,43,0.0,0.0,44,0.00,,---,0.00,VWS V14.01,2013-03-22 06:50:00,
2013-03-22 02:55:00,38.1,18.1,29.98,NE,43,0.0,0.0,44,0.00,,---,0.00,VWS V14.01,2013-03-22 06:55:00,
2013-03-22 03:00:00,37.9,18.0,29.98,ENE,57,0.0,0.0,44,0.00,,---,0.00,VWS V14.01,2013-03-22 07:00:00,
2013-03-22 03:05:00,37.9,16.9,29.98,NE,49,0.0,0.0,42,0.00,,---,0.00,VWS V14.01,2013-03-22 07:05:00,
2013-03-22 03:10:00,37.7,16.7,29.98,NE,34,0.0,0.0,42,0.00,,---,0.00,VWS V14.01,2013-03-22 07:10:00,
2013-03-22 03:15:00,37.6,16.6,29.98,NE,34,0.0,0.0,42,0.00,,---,0.00,VWS V14.01,2013-03-22 07:15:00,
2013-03-22 03:20:00,37.4,17.0,29.98,NE,42,0.0,0.0,43,0.00,,---,0.00,VWS V14.01,2013-03-22 07:20:00,
2013-03-22 03:25:00,37.3,16.9,29.97,NE,56,0.0,0.0,43,0.00,,---,0.00,VWS V14.01,2013-03-22 07:25:00,
2013-03-22 03:30:00,37.2,16.8,29.98,NNE,26,0.0,0.0,43,0.00,,---,0.00,VWS V14.01,2013-03-22 07:30:00,
2013-03-22 03:35:00,37.1,17.7,29.98,NNE,21,0.0,0.0,45,0.00,,---,0.00,VWS V14.01,2013-03-22 07:35:00,
2013-03-22 03:40:00,37.0,17.1,29.98,NE,47,0.0,0.0,44,0.00,,---,0.00,VWS V14.01,2013-03-22 07:40:00,
2013-03-22 04:00:00,36.9,17.0,29.99,North,0,0.0,0.0,44,0.00,,---,0.00,VWS V14.01,2013-03-22 08:00:00,
2013-03-22 04:30:00,36.3,17.0,29.99,North,0,0.0,0.0,45,0.00,,---,0.00,VWS V14.01,2013-03-22 08:30:00,
2013-03-22 05:00:00,35.8,18.5,30.00,North,0,0.0,0.0,49,0.00,,---,0.00,VWS V14.01,2013-03-22 09:00:00,
2013-03-22 05:30:00,34.7,18.4,30.02,North,0,0.0,0.0,51,0.00,,---,0.00,VWS V14.01,2013-03-22 09:30:00,
2013-03-22 06:00:00,34.4,18.6,30.03,North,0,0.0,0.0,52,0.00,,---,0.00,VWS V14.01,2013-03-22 10:00:00,
2013-03-22 06:30:00,34.0,18.7,30.04,North,0,0.0,0.0,53,0.00,,---,0.00,VWS V14.01,2013-03-22 10:30:00,
2013-03-22 07:00:00,33.8,17.6,30.06,North,0,0.0,0.0,51,0.00,,---,0.00,VWS V14.01,2013-03-22 11:00:00,
2013-03-22 07:30:00,33.9,17.7,30.07,North,0,0.0,0.0,51,0.00,,---,0.00,VWS V14.01,2013-03-22 11:30:00,
2013-03-22 08:00:00,35.8,18.5,30.00,North,0,0.0,0.0,49,0.00,,---,0.00,VWS V14.01,2013-03-22 12:00:00,
2013-03-22 08:26:00,36.2,18.4,30.08,NNW,329,0.0,0.0,48,0.00,,---,0.00,VWS V14.01,2013-03-22 12:26:00,
2013-03-22 08:30:00,36.2,16.9,30.08,North,360,0.0,0.0,45,0.00,,---,0.00,VWS V14.01,2013-03-22 12:30:00,
2013-03-22 08:32:00,36.2,17.9,30.08,NNE,19,0.0,0.0,47,0.00,,---,0.00,VWS V14.01,2013-03-22 12:32:00,
2013-03-22 08:37:00,36.3,17.0,30.08,NE,36,0.0,0.0,45,0.00,,---,0.00,VWS V14.01,2013-03-22 12:37:00,
2013-03-22 08:42:00,36.5,17.7,30.08,NE,43,0.0,0.0,46,0.00,,---,0.00,VWS V14.01,2013-03-22 12:42:00,
2013-03-22 08:47:00,36.8,18.0,30.08,NE,43,0.0,0.0,46,0.00,,---,0.00,VWS V14.01,2013-03-22 12:47:00,
2013-03-22 08:52:00,36.8,17.5,30.08,ENE,76,0.0,0.0,45,0.00,,---,0.00,VWS V14.01,2013-03-22 12:52:00,
2013-03-22 08:57:00,37.3,17.4,30.07,NNE,29,0.0,0.0,44,0.00,,---,0.00,VWS V14.01,2013-03-22 12:57:00,
2013-03-22 09:00:00,37.5,17.0,30.08,NE,46,0.0,0.0,43,0.00,,---,0.00,VWS V14.01,2013-03-22 13:00:00,
2013-03-22 09:02:00,37.5,17.0,30.08,NNE,26,0.0,0.0,43,0.00,,---,0.00,VWS V14.01,2013-03-22 13:02:00,
2013-03-22 09:07:00,37.7,17.2,30.07,NE,46,0.0,0.0,43,0.00,,---,0.00,VWS V14.01,2013-03-22 13:07:00,
2013-03-22 09:12:00,38.1,18.1,30.08,NE,46,0.0,0.0,44,0.00,,---,0.00,VWS V14.01,2013-03-22 13:12:00,
2013-03-22 09:17:00,38.5,19.0,30.07,ENE,76,0.0,0.0,45,0.00,,---,0.00,VWS V14.01,2013-03-22 13:17:00,
2013-03-22 09:22:00,38.6,18.0,30.07,NE,52,0.0,0.0,43,0.00,,---,0.00,VWS V14.01,2013-03-22 13:22:00,
2013-03-22 09:27:00,39.0,18.4,30.07,ENE,72,0.0,0.0,43,0.00,,---,0.00,VWS V14.01,2013-03-22 13:27:00,
2013-03-22 09:30:00,39.4,17.7,30.07,ENE,67,0.0,0.0,41,0.00,,---,0.00,VWS V14.01,2013-03-22 13:30:00,
2013-03-22 09:32:00,39.4,18.2,30.07,NE,54,0.0,0.0,42,0.00,,---,0.00,VWS V14.01,2013-03-22 13:32:00,
2013-03-22 09:37:00,39.4,18.2,30.08,ESE,102,0.0,0.0,42,0.00,,---,0.00,VWS V14.01,2013-03-22 13:37:00,
2013-03-22 09:42:00,39.2,16.9,30.08,East,80,0.0,0.0,40,0.00,,---,0.00,VWS V14.01,2013-03-22 13:42:00,
2013-03-22 09:47:00,39.4,16.5,30.08,ENE,70,0.0,0.0,39,0.00,,---,0.00,VWS V14.01,2013-03-22 13:47:00,
2013-03-22 09:52:00,39.8,18.6,30.08,ENE,74,0.0,0.0,42,0.00,,---,0.00,VWS V14.01,2013-03-22 13:52:00,
2013-03-22 09:57:00,39.9,16.4,30.08,ENE,65,0.0,0.0,38,0.00,,---,0.00,VWS V14.01,2013-03-22 13:57:00,
2013-03-22 10:00:00,40.2,18.4,30.08,NE,51,0.0,0.0,41,0.00,,---,0.00,VWS V14.01,2013-03-22 14:00:00,
2013-03-22 10:02:00,40.1,17.7,30.08,ENE,78,0.0,0.0,40,0.00,,---,0.00,VWS V14.01,2013-03-22 14:02:00,
2013-03-22 10:07:00,40.2,18.4,30.08,East,97,0.0,0.0,41,0.00,,---,0.00,VWS V14.01,2013-03-22 14:07:00,
2013-03-22 10:12:00,40.5,18.1,30.08,ESE,109,0.0,0.0,40,0.00,,---,0.00,VWS V14.01,2013-03-22 14:12:00,
2013-03-22 10:17:00,40.6,19.3,30.07,East,84,0.0,0.0,42,0.00,,---,0.00,VWS V14.01,2013-03-22 14:17:00,
2013-03-22 10:22:00,40.2,18.4,30.07,ESE,110,0.0,0.0,41,0.00,,---,0.00,VWS V14.01,2013-03-22 14:22:00,
2013-03-22 10:27:00,40.3,20.7,30.07,ENE,76,0.0,0.0,45,0.00,,---,0.00,VWS V14.01,2013-03-22 14:27:00,
2013-03-22 10:30:00,40.6,21.5,30.08,East,90,0.0,0.0,46,0.00,,---,0.00,VWS V14.01,2013-03-22 14:30:00,
2013-03-22 10:32:00,40.7,20.5,30.07,East,89,0.0,0.0,44,0.00,,---,0.00,VWS V14.01,2013-03-22 14:32:00,
2013-03-22 10:37:00,41.2,21.0,30.08,ENE,67,0.0,0.0,44,0.00,,---,0.00,VWS V14.01,2013-03-22 14:37:00,
2013-03-22 10:42:00,41.7,20.9,30.08,East,92,0.0,0.0,43,0.00,,---,0.00,VWS V14.01,2013-03-22 14:42:00,
2013-03-22 10:47:00,41.4,19.5,30.08,NE,51,0.0,0.0,41,0.00,,---,0.00,VWS V14.01,2013-03-22 14:47:00,
2013-03-22 10:52:00,41.1,20.3,30.07,NE,54,0.0,0.0,43,0.00,,---,0.00,VWS V14.01,2013-03-22 14:52:00,
2013-03-22 10:57:00,41.1,18.6,30.07,ESE,119,0.0,0.0,40,0.00,,---,0.00,VWS V14.01,2013-03-22 14:57:00,
2013-03-22 11:00:00,41.3,19.4,30.07,ESE,112,0.0,0.0,41,0.00,,---,0.00,VWS V14.01,2013-03-22 15:00:00,
2013-03-22 11:02:00,41.3,19.4,30.07,SE,130,0.0,0.0,41,0.00,,---,0.00,VWS V14.01,2013-03-22 15:02:00,
2013-03-22 11:07:00,41.9,21.0,30.07,ESE,102,0.0,0.0,43,0.00,,---,0.00,VWS V14.01,2013-03-22 15:07:00,
2013-03-22 11:12:00,42.3,22.5,30.07,ESE,102,0.0,0.0,45,0.00,,---,0.00,VWS V14.01,2013-03-22 15:12:00,
2013-03-22 11:17:00,42.5,24.2,30.07,ESE,110,0.0,0.0,48,0.00,,---,0.00,VWS V14.01,2013-03-22 15:17:00,
2013-03-22 11:22:00,42.8,23.0,30.07,East,92,0.0,0.0,45,0.00,,---,0.00,VWS V14.01,2013-03-22 15:22:00,
2013-03-22 11:27:00,42.5,22.7,30.07,ESE,123,0.0,0.0,45,0.00,,---,0.00,VWS V14.01,2013-03-22 15:27:00,
2013-03-22 11:30:00,42.4,23.6,30.07,SE,133,0.0,0.0,47,0.00,,---,0.00,VWS V14.01,2013-03-22 15:30:00,
2013-03-22 11:32:00,42.4,23.6,30.07,SE,127,0.0,0.0,47,0.00,,---,0.00,VWS V14.01,2013-03-22 15:32:00,
2013-03-22 11:37:00,42.8,25.0,30.07,SE,136,0.0,0.0,49,0.00,,---,0.00,VWS V14.01,2013-03-22 15:37:00,
2013-03-22 11:42:00,42.8,24.0,30.07,SE,128,0.0,0.0,47,0.00,,---,0.00,VWS V14.01,2013-03-22 15:42:00,
2013-03-22 11:47:00,43.1,24.3,30.07,ESE,106,0.0,0.0,47,0.00,,---,0.00,VWS V14.01,2013-03-22 15:47:00,
2013-03-22 11:52:00,43.0,23.6,30.07,SSE,150,0.0,0.0,46,0.00,,---,0.00,VWS V14.01,2013-03-22 15:52:00,
2013-03-22 11:57:00,43.1,24.8,30.08,South,171,0.0,0.0,48,0.00,,---,0.00,VWS V14.01,2013-03-22 15:57:00,
2013-03-22 12:00:00,43.4,25.0,30.08,East,86,0.0,0.0,48,0.00,,---,0.00,VWS V14.01,2013-03-22 16:00:00,
2013-03-22 12:02:00,43.4,25.0,30.08,ESE,119,0.0,0.0,48,0.00,,---,0.00,VWS V14.01,2013-03-22 16:02:00,
2013-03-22 12:07:00,43.6,26.2,30.07,ESE,121,0.0,0.0,50,0.00,,---,0.00,VWS V14.01,2013-03-22 16:07:00,
2013-03-22 12:12:00,43.9,26.0,30.08,ESE,123,0.0,0.0,49,0.00,,---,0.00,VWS V14.01,2013-03-22 16:12:00,
2013-03-22 12:17:00,43.7,26.8,30.07,South,174,0.0,0.0,51,0.00,,---,0.00,VWS V14.01,2013-03-22 16:17:00,
2013-03-22 12:22:00,43.8,25.9,30.07,SSE,148,0.0,0.0,49,0.00,,---,0.00,VWS V14.01,2013-03-22 16:22:00,
2013-03-22 12:27:00,43.7,26.8,30.07,SE,132,0.0,0.0,51,0.00,,---,0.00,VWS V14.01,2013-03-22 16:27:00,
2013-03-22 12:30:00,44.0,26.6,30.07,SE,142,0.0,0.0,50,0.00,,---,0.00,VWS V14.01,2013-03-22 16:30:00,
2013-03-22 12:32:00,44.1,25.7,30.07,SE,130,0.0,0.0,48,0.00,,---,0.00,VWS V14.01,2013-03-22 16:32:00,
2013-03-22 12:37:00,44.2,26.8,30.06,SE,146,0.0,0.0,50,0.00,,---,0.00,VWS V14.01,2013-03-22 16:37:00,
2013-03-22 12:42:00,44.2,26.3,30.07,ESE,123,0.0,0.0,49,0.00,,---,0.00,VWS V14.01,2013-03-22 16:42:00,
2013-03-22 12:47:00,44.0,25.6,30.07,SE,138,0.0,0.0,48,0.00,,---,0.00,VWS V14.01,2013-03-22 16:47:00,
2013-03-22 12:52:00,44.3,27.8,30.07,SE,143,0.0,0.0,52,0.00,,---,0.00,VWS V14.01,2013-03-22 16:52:00,
2013-03-22 12:57:00,44.5,28.0,30.07,SSE,168,0.0,0.0,52,0.00,,---,0.00,VWS V14.01,2013-03-22 16:57:00,
2013-03-22 13:00:00,44.3,25.4,30.07,SE,137,0.0,0.0,47,0.00,,---,0.00,VWS V14.01,2013-03-22 17:00:00,
2013-03-22 13:02:00,44.4,27.4,30.07,South,170,0.0,0.0,51,0.00,,---,0.00,VWS V14.01,2013-03-22 17:02:00,
2013-03-22 13:07:00,44.3,25.9,30.07,SSE,159,0.0,0.0,48,0.00,,---,0.00,VWS V14.01,2013-03-22 17:07:00,
2013-03-22 13:12:00,44.6,27.6,30.06,SE,142,0.0,0.0,51,0.00,,---,0.00,VWS V14.01,2013-03-22 17:12:00,
2013-03-22 13:17:00,44.6,26.6,30.06,SSE,164,0.0,0.0,49,0.00,,---,0.00,VWS V14.01,2013-03-22 17:17:00,
2013-03-22 13:22:00,44.7,28.6,30.06,South,188,0.0,0.0,53,0.00,,---,0.00,VWS V14.01,2013-03-22 17:22:00,
2013-03-22 13:27:00,44.8,26.8,30.06,South,187,0.0,0.0,49,0.00,,---,0.00,VWS V14.01,2013-03-22 17:27:00,
2013-03-22 13:30:00,44.6,26.1,30.06,SSE,154,0.0,0.0,48,0.00,,---,0.00,VWS V14.01,2013-03-22 17:30:00,
2013-03-22 13:32:00,44.6,27.6,30.06,SSE,153,0.0,0.0,51,0.00,,---,0.00,VWS V14.01,2013-03-22 17:32:00,
2013-03-22 13:37:00,44.8,26.3,30.06,South,175,0.0,0.0,48,0.00,,---,0.00,VWS V14.01,2013-03-22 17:37:00,
2013-03-22 13:42:00,44.7,29.1,30.05,SE,146,0.0,0.0,54,0.00,,---,0.00,VWS V14.01,2013-03-22 17:42:00,
2013-03-22 13:47:00,45.1,26.6,30.05,South,188,0.0,0.0,48,0.00,,---,0.00,VWS V14.01,2013-03-22 17:47:00,
2013-03-22 13:52:00,45.1,27.6,30.04,SSE,158,0.0,0.0,50,0.00,,---,0.00,VWS V14.01,2013-03-22 17:52:00,
2013-03-22 13:57:00,45.1,28.5,30.04,South,186,0.0,0.0,52,0.00,,---,0.00,VWS V14.01,2013-03-22 17:57:00,
2013-03-22 14:00:00,45.1,27.6,30.05,SSW,204,0.0,0.0,50,0.00,,---,0.00,VWS V14.01,2013-03-22 18:00:00,
2013-03-22 14:02:00,45.3,28.7,30.05,South,175,0.0,0.0,52,0.00,,---,0.00,VWS V14.01,2013-03-22 18:02:00,
2013-03-22 14:07:00,45.4,29.3,30.04,SSE,166,0.0,0.0,53,0.00,,---,0.00,VWS V14.01,2013-03-22 18:07:00,
2013-03-22 14:12:00,46.0,28.9,30.04,South,181,0.0,0.0,51,0.00,,---,0.00,VWS V14.01,2013-03-22 18:12:00,
2013-03-22 14:17:00,46.1,29.5,30.04,South,186,0.0,0.0,52,0.00,,---,0.00,VWS V14.01,2013-03-22 18:17:00,
2013-03-22 14:22:00,45.6,28.5,30.04,SSW,198,0.0,0.0,51,0.00,,---,0.00,VWS V14.01,2013-03-22 18:22:00,
2013-03-22 14:27:00,45.8,29.7,30.04,South,169,0.0,0.0,53,0.00,,---,0.00,VWS V14.01,2013-03-22 18:27:00,
2013-03-22 14:30:00,46.1,30.4,30.04,South,169,0.0,0.0,54,0.00,,---,0.00,VWS V14.01,2013-03-22 18:30:00,
2013-03-22 14:32:00,46.1,29.9,30.04,SSW,203,0.0,0.0,53,0.00,,---,0.00,VWS V14.01,2013-03-22 18:32:00,
2013-03-22 14:37:00,46.1,29.9,30.04,South,190,0.0,0.0,53,0.00,,---,0.00,VWS V14.01,2013-03-22 18:37:00,
2013-03-22 14:42:00,46.5,30.3,30.04,South,188,0.0,0.0,53,0.00,,---,0.00,VWS V14.01,2013-03-22 18:42:00,
2013-03-22 14:47:00,46.4,28.3,30.04,SSW,205,0.0,0.0,49,0.00,,---,0.00,VWS V14.01,2013-03-22 18:47:00,
2013-03-22 14:52:00,46.6,29.9,30.04,SW,215,0.0,0.0,52,0.00,,---,0.00,VWS V14.01,2013-03-22 18:52:00,
2013-03-22 14:57:00,46.7,29.1,30.04,SSW,205,0.0,0.0,50,0.00,,---,0.00,VWS V14.01,2013-03-22 18:57:00,
2013-03-22 15:00:00,46.3,29.7,30.03,SSW,197,0.0,0.0,52,0.00,,---,0.00,VWS V14.01,2013-03-22 19:00:00,
2013-03-22 15:02:00,46.3,30.6,30.03,SSW,205,0.0,0.0,54,0.00,,---,0.00,VWS V14.01,2013-03-22 19:02:00,
2013-03-22 15:07:00,46.5,29.4,30.03,SSW,207,0.0,0.0,51,0.00,,---,0.00,VWS V14.01,2013-03-22 19:07:00,
2013-03-22 15:12:00,46.3,30.6,30.03,South,188,0.0,0.0,54,0.00,,---,0.00,VWS V14.01,2013-03-22 19:12:00,
2013-03-22 15:17:00,46.3,29.6,30.03,SW,216,0.0,0.0,52,0.00,,---,0.00,VWS V14.01,2013-03-22 19:17:00,
2013-03-22 15:22:00,46.2,29.6,30.03,SSW,206,0.0,0.0,52,0.00,,---,0.00,VWS V14.01,2013-03-22 19:22:00,
2013-03-22 15:27:00,46.3,30.1,30.02,South,181,0.0,0.0,53,0.00,,---,0.00,VWS V14.01,2013-03-22 19:27:00,
2013-03-22 15:30:00,46.3,29.7,30.02,South,180,0.0,0.0,52,0.00,,---,0.00,VWS V14.01,2013-03-22 19:30:00,
2013-03-22 15:32:00,46.3,29.6,30.02,SSW,198,0.0,0.0,52,0.00,,---,0.00,VWS V14.01,2013-03-22 19:32:00,
2013-03-22 15:37:00,46.6,30.4,30.02,South,180,0.0,0.0,53,0.00,,---,0.00,VWS V14.01,2013-03-22 19:37:00,
2013-03-22 15:42:00,46.9,31.6,30.01,SW,217,0.0,0.0,55,0.00,,---,0.00,VWS V14.01,2013-03-22 19:42:00,
2013-03-22 15:47:00,46.9,30.2,30.02,SW,219,0.0,0.0,52,0.00,,---,0.00,VWS V14.01,2013-03-22 19:47:00,
2013-03-22 15:52:00,46.9,31.6,30.02,SW,225,0.0,0.0,55,0.00,,---,0.00,VWS V14.01,2013-03-22 19:52:00,
2013-03-22 15:57:00,46.9,29.7,30.01,SSW,213,0.0,0.0,51,0.00,,---,0.00,VWS V14.01,2013-03-22 19:57:00,
2013-03-22 16:00:00,47.0,31.7,30.01,SSW,209,0.0,0.0,55,0.00,,---,0.00,VWS V14.01,2013-03-22 20:00:00,
2013-03-22 16:02:00,47.3,32.4,30.01,SSW,206,0.0,0.0,56,0.00,,---,0.00,VWS V14.01,2013-03-22 20:02:00,
2013-03-22 16:07:00,47.7,31.9,30.02,SSW,208,0.0,0.0,54,0.00,,---,0.00,VWS V14.01,2013-03-22 20:07:00,
2013-03-22 16:12:00,47.7,30.5,30.01,SSW,209,0.0,0.0,51,0.00,,---,0.00,VWS V14.01,2013-03-22 20:12:00,
2013-03-22 16:17:00,47.6,32.7,30.01,SSW,206,0.0,0.0,56,0.00,,---,0.00,VWS V14.01,2013-03-22 20:17:00,
2013-03-22 16:22:00,47.4,31.1,30.01,SSW,211,0.0,0.0,53,0.00,,---,0.00,VWS V14.01,2013-03-22 20:22:00,
2013-03-22 16:27:00,47.2,32.3,30.01,SW,216,0.0,0.0,56,0.00,,---,0.00,VWS V14.01,2013-03-22 20:27:00,
2013-03-22 16:30:00,47.2,31.4,30.01,SW,215,0.0,0.0,54,0.00,,---,0.00,VWS V14.01,2013-03-22 20:30:00,
2013-03-22 16:32:00,47.1,31.3,30.01,SW,227,0.0,0.0,54,0.00,,---,0.00,VWS V14.01,2013-03-22 20:32:00,
2013-03-22 16:37:00,47.4,31.6,30.01,SW,217,0.0,0.0,54,0.00,,---,0.00,VWS V14.01,2013-03-22 20:37:00,
2013-03-22 16:42:00,47.7,33.2,30.00,SSW,209,0.0,0.0,57,0.00,,---,0.00,VWS V14.01,2013-03-22 20:42:00,
2013-03-22 16:47:00,47.8,32.4,30.00,SW,222,0.0,0.0,55,0.00,,---,0.00,VWS V14.01,2013-03-22 20:47:00,
2013-03-22 16:52:00,47.9,33.0,30.01,SSW,203,0.0,0.0,56,0.00,,---,0.00,VWS V14.01,2013-03-22 20:52:00,
2013-03-22 16:57:00,47.8,34.2,30.01,SW,217,0.0,0.0,59,0.00,,---,0.00,VWS V14.01,2013-03-22 20:57:00,
2013-03-22 17:00:00,47.8,33.3,30.01,SSW,196,0.0,0.0,57,0.00,,---,0.00,VWS V14.01,2013-03-22 21:00:00,
2013-03-22 17:02:00,47.8,33.8,30.01,SSW,202,0.0,0.0,58,0.00,,---,0.00,VWS V14.01,2013-03-22 21:02:00,
2013-03-22 17:07:00,47.9,33.8,30.00,SW,231,0.0,0.0,58,0.00,,---,0.00,VWS V14.01,2013-03-22 21:07:00,
2013-03-22 17:12:00,48.4,34.3,30.01,SSW,198,0.0,0.0,58,0.00,,---,0.00,VWS V14.01,2013-03-22 21:12:00,
2013-03-22 17:17:00,48.3,32.9,30.00,SW,232,0.0,0.0,55,0.00,,---,0.00,VWS V14.01,2013-03-22 21:17:00,
2013-03-22 17:22:00,48.3,33.8,30.00,SSW,211,0.0,0.0,57,0.00,,---,0.00,VWS V14.01,2013-03-22 21:22:00,
2013-03-22 17:27:00,48.7,34.6,30.00,SW,219,0.0,0.0,58,0.00,,---,0.00,VWS V14.01,2013-03-22 21:27:00,
2013-03-22 17:30:00,48.6,33.6,30.00,SW,229,0.0,0.0,56,0.00,,---,0.00,VWS V14.01,2013-03-22 21:30:00,
2013-03-22 17:32:00,48.7,34.6,30.00,SSW,211,0.0,0.0,58,0.00,,---,0.00,VWS V14.01,2013-03-22 21:32:00,
2013-03-22 17:37:00,48.8,33.8,30.01,SW,221,0.0,0.0,56,0.00,,---,0.00,VWS V14.01,2013-03-22 21:37:00,
2013-03-22 17:42:00,48.7,34.2,30.01,SW,225,0.0,0.0,57,0.00,,---,0.00,VWS V14.01,2013-03-22 21:42:00,
2013-03-22 17:47:00,48.6,34.9,30.00,WSW,240,0.0,0.0,59,0.00,,---,0.00,VWS V14.01,2013-03-22 21:47:00,
2013-03-22 17:52:00,48.6,34.9,30.00,SW,227,0.0,0.0,59,0.00,,---,0.00,VWS V14.01,2013-03-22 21:52:00,
2013-03-22 17:57:00,48.9,33.9,30.00,SW,232,0.0,0.0,56,0.00,,---,0.00,VWS V14.01,2013-03-22 21:57:00,
2013-03-22 18:00:00,49.2,34.2,30.00,SW,218,0.0,0.0,56,0.00,,---,0.00,VWS V14.01,2013-03-22 22:00:00,
2013-03-22 18:02:00,49.4,34.4,30.00,SW,214,0.0,0.0,56,0.00,,---,0.00,VWS V14.01,2013-03-22 22:02:00,
2013-03-22 18:07:00,49.7,34.7,30.00,SW,236,0.0,0.0,56,0.00,,---,0.00,VWS V14.01,2013-03-22 22:07:00,
2013-03-22 18:12:00,49.4,35.3,30.00,SW,227,0.0,0.0,58,0.00,,---,0.00,VWS V14.01,2013-03-22 22:12:00,
2013-03-22 18:17:00,49.0,34.9,30.01,SW,218,0.0,0.0,58,0.00,,---,0.00,VWS V14.01,2013-03-22 22:17:00,
2013-03-22 18:22:00,48.9,35.2,30.01,SSW,209,0.0,0.0,59,0.00,,---,0.00,VWS V14.01,2013-03-22 22:22:00,
2013-03-22 18:27:00,49.2,35.1,30.00,SW,223,0.0,0.0,58,0.00,,---,0.00,VWS V14.01,2013-03-22 22:27:00,
2013-03-22 18:30:00,49.4,34.8,30.00,SW,222,0.0,0.0,57,0.00,,---,0.00,VWS V14.01,2013-03-22 22:30:00,
2013-03-22 18:32:00,49.4,34.8,30.00,SW,222,0.0,0.0,57,0.00,,---,0.00,VWS V14.01,2013-03-22 22:32:00,
2013-03-22 18:37:00,49.5,35.3,30.00,SW,229,0.0,0.0,58,0.00,,---,0.00,VWS V14.01,2013-03-22 22:37:00,
2013-03-22 18:42:00,49.3,34.7,30.00,SW,225,0.0,0.0,57,0.00,,---,0.00,VWS V14.01,2013-03-22 22:42:00,
2013-03-22 18:47:00,49.2,35.1,30.00,WSW,244,0.0,0.0,58,0.00,,---,0.00,VWS V14.01,2013-03-22 22:47:00,
2013-03-22 18:52:00,49.1,35.4,30.00,WSW,240,0.0,0.0,59,0.00,,---,0.00,VWS V14.01,2013-03-22 22:52:00,
2013-03-22 18:57:00,49.0,35.3,30.00,SW,224,0.0,0.0,59,0.00,,---,0.00,VWS V14.01,2013-03-22 22:57:00,
2013-03-22 19:00:00,48.9,35.6,30.00,SSW,211,0.0,0.0,60,0.00,,---,0.00,VWS V14.01,2013-03-22 23:00:00,
2013-03-22 19:02:00,48.8,35.5,30.00,SW,227,0.0,0.0,60,0.00,,---,0.00,VWS V14.01,2013-03-22 23:02:00,
2013-03-22 19:07:00,48.8,36.0,30.00,SW,225,0.0,0.0,61,0.00,,---,0.00,VWS V14.01,2013-03-22 23:07:00,
2013-03-22 19:12:00,48.8,36.0,30.00,SW,229,0.0,0.0,61,0.00,,---,0.00,VWS V14.01,2013-03-22 23:12:00,
2013-03-22 19:17:00,48.7,36.3,30.01,West,260,0.0,0.0,62,0.00,,---,0.00,VWS V14.01,2013-03-22 23:17:00,
2013-03-22 19:22:00,48.6,35.8,30.01,WSW,251,0.0,0.0,61,0.00,,---,0.00,VWS V14.01,2013-03-22 23:22:00,
2013-03-22 19:27:00,48.5,35.3,30.01,West,259,0.0,0.0,60,0.00,,---,0.00,VWS V14.01,2013-03-22 23:27:00,
2013-03-22 19:30:00,48.4,35.2,30.01,WSW,249,0.0,0.0,60,0.00,,---,0.00,VWS V14.01,2013-03-22 23:30:00,
2013-03-22 19:32:00,48.4,35.6,30.01,WSW,250,0.0,0.0,61,0.00,,---,0.00,VWS V14.01,2013-03-22 23:32:00,
2013-03-22 19:37:00,48.3,35.5,30.01,WSW,238,0.0,0.0,61,0.00,,---,0.00,VWS V14.01,2013-03-22 23:37:00,
2013-03-22 19:42:00,48.2,35.4,30.01,WSW,242,0.0,0.0,61,0.00,,---,0.00,VWS V14.01,2013-03-22 23:42:00,
2013-03-22 19:47:00,48.0,35.6,30.01,WSW,240,0.0,0.0,62,0.00,,---,0.00,VWS V14.01,2013-03-22 23:47:00,
2013-03-22 19:52:00,47.9,35.5,30.01,WSW,254,0.0,0.0,62,0.00,,---,0.00,VWS V14.01,2013-03-22 23:52:00,
2013-03-22 19:57:00,47.8,35.4,30.01,WSW,249,0.0,0.0,62,0.00,,---,0.00,VWS V14.01,2013-03-22 23:57:00,
2013-03-22 20:00:00,47.8,35.4,30.01,WSW,255,0.0,0.0,62,0.00,,---,0.00,VWS V14.01,2013-03-23 00:00:00,
2013-03-22 20:02:00,47.8,35.4,30.01,WSW,257,0.0,0.0,62,0.00,,---,0.00,VWS V14.01,2013-03-23 00:02:00,
2013-03-22 20:07:00,47.8,35.4,30.01,SW,236,0.0,0.0,62,0.00,,---,0.00,VWS V14.01,2013-03-23 00:07:00,
2013-03-22 20:12:00,47.8,35.4,30.01,WSW,246,0.0,0.0,62,0.00,,---,0.00,VWS V14.01,2013-03-23 00:12:00,
2013-03-22 20:17:00,47.8,35.8,30.01,WSW,249,0.0,0.0,63,0.00,,---,0.00,VWS V14.01,2013-03-23 00:17:00,
2013-03-22 20:22:00,47.8,35.8,30.01,WSW,246,0.0,0.0,63,0.00,,---,0.00,VWS V14.01,2013-03-23 00:22:00,
2013-03-22 20:27:00,47.9,35.9,30.02,West,262,0.0,0.0,63,0.00,,---,0.00,VWS V14.01,2013-03-23 00:27:00,
2013-03-22 20:30:00,47.9,35.5,30.02,WSW,258,0.0,0.0,62,0.00,,---,0.00,VWS V14.01,2013-03-23 00:30:00,
2013-03-22 20:32:00,47.9,35.5,30.02,WSW,254,0.0,0.0,62,0.00,,---,0.00,VWS V14.01,2013-03-23 00:32:00,
2013-03-22 20:37:00,47.9,35.5,30.02,WSW,252,0.0,0.0,62,0.00,,---,0.00,VWS V14.01,2013-03-23 00:37:00,
2013-03-22 20:42:00,47.9,35.5,30.02,SW,230,0.0,0.0,62,0.00,,---,0.00,VWS V14.01,2013-03-23 00:42:00,
2013-03-22 20:47:00,48.0,35.6,30.02,WSW,255,0.0,0.0,62,0.00,,---,0.00,VWS V14.01,2013-03-23 00:47:00,
2013-03-22 20:52:00,48.1,35.7,30.02,WSW,258,0.0,0.0,62,0.00,,---,0.00,VWS V14.01,2013-03-23 00:52:00,
2013-03-22 20:57:00,48.1,35.3,30.03,WSW,237,0.0,0.0,61,0.00,,---,0.00,VWS V14.01,2013-03-23 00:57:00,
2013-03-22 21:00:00,48.2,35.0,30.02,WSW,243,0.0,0.0,60,0.00,,---,0.00,VWS V14.01,2013-03-23 01:00:00,
2013-03-22 21:02:00,48.2,35.4,30.02,WSW,258,0.0,0.0,61,0.00,,---,0.00,VWS V14.01,2013-03-23 01:02:00,
2013-03-22 21:07:00,48.2,35.4,30.03,WSW,251,0.0,0.0,61,0.00,,---,0.00,VWS V14.01,2013-03-23 01:07:00,
2013-03-22 21:12:00,48.2,35.4,30.03,WSW,242,0.0,0.0,61,0.00,,---,0.00,VWS V14.01,2013-03-23 01:12:00,
2013-03-22 21:17:00,48.2,35.4,30.02,West,261,0.0,0.0,61,0.00,,---,0.00,VWS V14.01,2013-03-23 01:17:00,
2013-03-22 21:22:00,48.3,35.5,30.03,West,261,0.0,0.0,61,0.00,,---,0.00,VWS V14.01,2013-03-23 01:22:00,
2013-03-22 21:27:00,48.3,35.9,30.03,West,275,0.0,0.0,62,0.00,,---,0.00,VWS V14.01,2013-03-23 01:27:00,
2013-03-22 21:30:00,48.2,35.8,30.03,WSW,256,0.0,0.0,62,0.00,,---,0.00,VWS V14.01,2013-03-23 01:30:00,
2013-03-22 21:32:00,48.2,35.8,30.03,West,265,0.0,0.0,62,0.00,,---,0.00,VWS V14.01,2013-03-23 01:32:00,
2013-03-22 21:37:00,48.3,36.3,30.03,WSW,251,0.0,0.0,63,0.00,,---,0.00,VWS V14.01,2013-03-23 01:37:00,
2013-03-22 21:42:00,48.2,36.2,30.03,WSW,255,0.0,0.0,63,0.00,,---,0.00,VWS V14.01,2013-03-23 01:42:00,
2013-03-22 21:47:00,48.2,36.2,30.04,WSW,255,0.0,0.0,63,0.00,,---,0.00,VWS V14.01,2013-03-23 01:47:00,
2013-03-22 21:52:00,48.2,36.2,30.04,WSW,255,0.0,0.0,63,0.00,,---,0.00,VWS V14.01,2013-03-23 01:52:00,
2013-03-22 21:57:00,48.2,36.2,30.04,WSW,255,0.0,0.0,63,0.00,,---,0.00,VWS V14.01,2013-03-23 01:57:00,
2013-03-22 22:00:00,48.2,36.2,30.04,WSW,255,0.0,0.0,63,0.00,,---,0.00,VWS V14.01,2013-03-23 02:00:00,
2013-03-22 22:02:00,48.2,36.2,30.04,WSW,255,0.0,0.0,63,0.00,,---,0.00,VWS V14.01,2013-03-23 02:02:00,
2013-03-22 22:07:00,48.2,36.2,30.03,WSW,255,0.0,0.0,63,0.00,,---,0.00,VWS V14.01,2013-03-23 02:07:00,
2013-03-22 22:12:00,48.2,36.2,30.04,WSW,255,0.0,0.0,63,0.00,,---,0.00,VWS V14.01,2013-03-23 02:12:00,
2013-03-22 22:17:00,48.2,36.2,30.03,WSW,255,0.0,0.0,63,0.00,,---,0.00,VWS V14.01,2013-03-23 02:17:00,
2013-03-22 22:22:00,48.2,36.2,30.03,WSW,255,0.0,0.0,63,0.00,,---,0.00,VWS V14.01,2013-03-23 02:22:00,
2013-03-22 22:27:00,48.2,36.2,30.03,WSW,255,0.0,0.0,63,0.00,,---,0.00,VWS V14.01,2013-03-23 02:27:00,
2013-03-22 22:30:00,48.2,36.2,30.03,WSW,255,0.0,0.0,63,0.00,,---,0.00,VWS V14.01,2013-03-23 02:30:00,
2013-03-22 22:32:00,48.2,36.2,30.04,WSW,255,0.0,0.0,63,0.00,,---,0.00,VWS V14.01,2013-03-23 02:32:00,
2013-03-22 22:37:00,48.2,36.2,30.04,WSW,255,0.0,0.0,63,0.00,,---,0.00,VWS V14.01,2013-03-23 02:37:00,
2013-03-22 22:42:00,48.2,36.2,30.04,WSW,255,0.0,0.0,63,0.00,,---,0.00,VWS V14.01,2013-03-23 02:42:00,
2013-03-22 22:47:00,48.2,36.2,30.04,WSW,255,0.0,0.0,63,0.00,,---,0.00,VWS V14.01,2013-03-23 02:47:00,
2013-03-22 22:52:00,48.2,36.2,30.04,WSW,255,0.0,0.0,63,0.00,,---,0.00,VWS V14.01,2013-03-23 02:52:00,
2013-03-22 22:57:00,48.2,36.2,30.04,WSW,255,0.0,0.0,63,0.00,,---,0.00,VWS V14.01,2013-03-23 02:57:00,
2013-03-22 23:00:00,48.2,36.2,30.03,WSW,255,0.0,0.0,63,0.00,,---,0.00,VWS V14.01,2013-03-23 03:00:00,
2013-03-22 23:02:00,48.2,36.2,30.03,WSW,255,0.0,0.0,63,0.00,,---,0.00,VWS V14.01,2013-03-23 03:02:00,
2013-03-22 23:07:00,48.2,36.2,30.03,WSW,255,0.0,0.0,63,0.00,,---,0.00,VWS V14.01,2013-03-23 03:07:00,
2013-03-22 23:12:00,48.2,36.2,30.03,WSW,255,0.0,0.0,63,0.00,,---,0.00,VWS V14.01,2013-03-23 03:12:00,
2013-03-22 23:17:00,48.2,36.2,30.03,WSW,255,0.0,0.0,63,0.00,,---,0.00,VWS V14.01,2013-03-23 03:17:00,
2013-03-22 23:22:00,48.2,36.2,30.03,WSW,255,0.0,0.0,63,0.00,,---,0.00,VWS V14.01,2013-03-23 03:22:00,
2013-03-22 23:27:00,48.2,36.2,30.03,WSW,255,0.0,0.0,63,0.00,,---,0.00,VWS V14.01,2013-03-23 03:27:00,
2013-03-22 23:30:00,48.2,36.2,30.03,WSW,255,0.0,0.0,63,0.00,,---,0.00,VWS V14.01,2013-03-23 03:30:00,
2013-03-22 23:32:00,48.2,36.2,30.03,WSW,255,0.0,0.0,63,0.00,,---,0.00,VWS V14.01,2013-03-23 03:32:00,
2013-03-22 23:37:00,48.2,36.2,30.03,WSW,255,0.0,0.0,63,0.00,,---,0.00,VWS V14.01,2013-03-23 03:37:00,
2013-03-22 23:42:00,48.2,36.2,30.03,WSW,255,0.0,0.0,63,0.00,,---,0.00,VWS V14.01,2013-03-23 03:42:00,
2013-03-22 23:47:00,48.2,36.2,30.03,WSW,255,0.0,0.0,63,0.00,,---,0.00,VWS V14.01,2013-03-23 03:47:00,
2013-03-22 23:52:00,48.2,36.2,30.03,WSW,255,0.0,0.0,63,0.00,,---,0.00,VWS V14.01,2013-03-23 03:52:00,
2013-03-22 23:57:00,48.2,36.2,30.03,WSW,255,0.0,0.0,63,0.00,,---,0.00,VWS V14.01,2013-03-23 03:57:00,